Time;durP1;ratioP1;P1;durP2;ratioP2;P2;SDS_P1;SDS_P2;PMS_P1;PMS_P2;Temp;Humidity;BMP_temperature;BMP_pressure;BME280_temperature;BME280_humidity;BME280_pressure;Samples;Min_cycle;Max_cycle;Signal;HPM_P1;HPM_P2
2023/04/09 00:01:41;;;;;;;53.53;16.77;;;15.50;57.80;;;;;;5091074;28;20900;-79
2023/04/09 00:04:08;;;;;;;48.93;17.57;;;15.50;57.80;;;;;;5111487;28;20208;-80
2023/04/09 00:06:35;;;;;;;48.60;17.70;;;15.50;57.80;;;;;;5092034;28;20655;-78
2023/04/09 00:09:01;;;;;;;46.03;17.23;;;15.40;57.70;;;;;;5091466;28;20205;-78
2023/04/09 00:11:28;;;;;;;44.47;16.40;;;15.50;57.80;;;;;;5101293;28;20206;-79
2023/04/09 00:13:55;;;;;;;56.23;17.87;;;15.40;57.70;;;;;;5105496;28;20205;-78
2023/04/09 00:16:22;;;;;;;52.03;18.97;;;15.50;57.80;;;;;;5090522;28;20202;-78
2023/04/09 00:18:50;;;;;;;71.53;19.70;;;15.40;57.80;;;;;;5091116;28;20238;-81
2023/04/09 00:21:17;;;;;;;88.33;20.17;;;15.40;57.70;;;;;;5090857;28;20798;-77
2023/04/09 00:23:44;;;;;;;81.70;19.63;;;15.40;57.70;;;;;;5090847;28;20187;-79
2023/04/09 00:26:11;;;;;;;54.47;17.50;;;15.40;57.80;;;;;;5091962;28;20224;-78
2023/04/09 00:28:37;;;;;;;60.40;18.37;;;15.40;57.80;;;;;;5091554;28;20226;-84
2023/04/09 00:31:04;;;;;;;48.80;18.13;;;15.30;57.70;;;;;;5102022;28;20199;-80
2023/04/09 00:33:31;;;;;;;51.30;17.70;;;15.30;57.70;;;;;;5104611;28;20202;-79
2023/04/09 00:36:00;;;;;;;44.30;17.27;;;15.30;57.70;;;;;;5097269;28;20609;-81
2023/04/09 00:38:26;;;;;;;47.33;16.47;;;15.30;57.70;;;;;;5090011;28;20228;-80
2023/04/09 00:40:53;;;;;;;60.47;18.47;;;15.30;57.70;;;;;;5093518;28;20195;-78
2023/04/09 00:43:21;;;;;;;55.93;17.00;;;15.30;57.80;;;;;;5087668;28;20197;-84
2023/04/09 00:45:48;;;;;;;66.97;18.63;;;15.20;57.70;;;;;;5089008;28;20957;-79
2023/04/09 00:48:16;;;;;;;70.10;18.73;;;15.20;57.70;;;;;;5089725;28;20278;-78
2023/04/09 00:50:43;;;;;;;68.73;18.17;;;15.10;57.60;;;;;;5089923;28;20204;-81
2023/04/09 00:53:12;;;;;;;70.90;18.90;;;15.20;57.70;;;;;;5090057;28;20209;-81
2023/04/09 00:55:40;;;;;;;50.93;17.17;;;15.20;57.70;;;;;;5093219;28;20191;-82
2023/04/09 00:58:07;;;;;;;48.00;16.23;;;15.20;57.70;;;;;;5107594;28;21872;-86
2023/04/09 01:00:34;;;;;;;67.27;18.70;;;15.10;57.70;;;;;;5091065;28;20200;-81
2023/04/09 01:03:02;;;;;;;49.20;16.43;;;15.10;57.70;;;;;;5095119;28;20209;-86
2023/04/09 01:05:38;;;;;;;72.30;18.50;;;15.10;57.70;;;;;;5097003;28;20191;-81
2023/04/09 01:08:12;;;;;;;52.03;16.33;;;15.10;57.70;;;;;;5105019;28;20201;-80
2023/04/09 01:10:46;;;;;;;72.93;18.23;;;15.10;57.70;;;;;;5105913;28;20197;-80
2023/04/09 01:13:18;;;;;;;53.93;16.87;;;15.10;57.70;;;;;;5092720;28;20198;-83
2023/04/09 01:15:51;;;;;;;52.37;17.03;;;15.00;57.60;;;;;;5092134;28;20212;-79
2023/04/09 01:18:25;;;;;;;52.90;16.43;;;15.00;57.60;;;;;;5090972;28;20237;-78
2023/04/09 01:20:58;;;;;;;56.83;16.60;;;15.00;57.60;;;;;;5090859;28;20572;-79
2023/04/09 01:23:34;;;;;;;56.87;17.17;;;15.00;57.60;;;;;;5088719;28;20199;-83
2023/04/09 01:26:07;;;;;;;63.47;17.60;;;15.00;57.60;;;;;;5092006;28;20233;-79
2023/04/09 01:28:39;;;;;;;53.23;16.47;;;15.00;57.70;;;;;;5111999;28;20203;-78
2023/04/09 01:31:12;;;;;;;59.03;16.93;;;15.00;57.70;;;;;;5093842;28;20298;-81
2023/04/09 01:33:40;;;;;;;48.77;16.63;;;14.90;57.60;;;;;;5094377;28;20188;-78
2023/04/09 01:36:09;;;;;;;46.90;16.10;;;14.90;57.70;;;;;;5089078;28;20195;-79
2023/04/09 01:38:39;;;;;;;51.00;16.43;;;14.90;57.70;;;;;;5088480;28;20211;-78
2023/04/09 01:41:07;;;;;;;38.37;16.00;;;14.90;57.70;;;;;;5089630;28;20294;-78
2023/04/09 01:43:37;;;;;;;51.77;16.87;;;14.90;57.70;;;;;;5089099;28;20199;-77
2023/04/09 01:46:04;;;;;;;53.00;17.37;;;14.90;57.60;;;;;;5088256;28;20209;-78
2023/04/09 01:48:33;;;;;;;55.07;17.67;;;14.80;57.60;;;;;;5101255;28;20230;-77
2023/04/09 01:51:00;;;;;;;43.97;15.70;;;14.90;57.70;;;;;;5109320;28;20206;-77
2023/04/09 01:53:27;;;;;;;40.03;14.77;;;14.80;57.60;;;;;;5106926;28;20229;-77
2023/04/09 01:55:54;;;;;;;51.30;17.73;;;14.80;57.60;;;;;;5096139;28;20191;-77
2023/04/09 01:58:21;;;;;;;49.13;16.30;;;14.80;57.60;;;;;;5088704;28;20708;-77
2023/04/09 02:00:51;;;;;;;48.93;17.10;;;14.70;57.60;;;;;;5089543;28;20203;-78
2023/04/09 02:03:23;;;;;;;41.97;16.13;;;14.70;57.60;;;;;;5089469;28;20203;-78
2023/04/09 02:05:55;;;;;;;43.00;16.50;;;14.70;57.60;;;;;;5088289;28;20559;-79
2023/04/09 02:08:23;;;;;;;49.90;16.97;;;14.80;57.60;;;;;;5088411;28;20200;-77
2023/04/09 02:10:54;;;;;;;50.93;16.40;;;14.70;57.60;;;;;;5093770;28;20203;-80
2023/04/09 02:13:21;;;;;;;63.87;17.80;;;14.70;57.60;;;;;;5088857;28;20557;-78
2023/04/09 02:15:51;;;;;;;66.63;18.20;;;14.70;57.60;;;;;;5086967;28;20264;-78
2023/04/09 02:18:23;;;;;;;60.00;17.17;;;14.70;57.60;;;;;;5088046;28;20230;-78
2023/04/09 02:20:49;;;;;;;62.73;18.03;;;14.60;57.60;;;;;;5099690;28;20214;-77
2023/04/09 02:23:17;;;;;;;47.90;16.67;;;14.60;57.60;;;;;;5097891;28;20213;-78
2023/04/09 02:25:44;;;;;;;58.30;16.77;;;14.60;57.50;;;;;;5097523;28;20233;-78
2023/04/09 02:28:11;;;;;;;46.70;16.10;;;14.70;57.60;;;;;;5093781;28;20209;-78
2023/04/09 02:30:37;;;;;;;85.33;19.53;;;14.50;57.50;;;;;;5089167;28;20206;-77
2023/04/09 02:33:06;;;;;;;45.37;16.60;;;14.50;57.50;;;;;;5099398;28;20194;-78
2023/04/09 02:35:33;;;;;;;62.73;17.00;;;14.50;57.50;;;;;;5099234;28;20716;-81
2023/04/09 02:38:00;;;;;;;49.77;16.50;;;14.50;57.50;;;;;;5088795;28;20670;-78
2023/04/09 02:40:27;;;;;;;41.20;16.00;;;14.50;57.50;;;;;;5095721;28;20213;-77
2023/04/09 02:42:54;;;;;;;83.07;19.20;;;14.40;57.50;;;;;;5102199;28;20197;-77
2023/04/09 02:45:21;;;;;;;49.33;15.93;;;14.50;57.60;;;;;;5105575;28;20295;-77
2023/04/09 02:47:48;;;;;;;43.27;15.10;;;14.50;57.60;;;;;;5106179;28;20202;-77
2023/04/09 02:50:16;;;;;;;48.37;16.33;;;14.40;57.60;;;;;;5093822;28;20643;-77
2023/04/09 02:52:46;;;;;;;52.67;17.00;;;14.40;57.50;;;;;;5091617;28;20224;-78
2023/04/09 02:55:13;;;;;;;52.93;16.70;;;14.40;57.60;;;;;;5091673;28;20659;-77
2023/04/09 02:57:40;;;;;;;53.60;16.30;;;14.40;57.60;;;;;;5085966;28;20542;-78
2023/04/09 03:00:08;;;;;;;46.07;15.00;;;14.40;57.60;;;;;;5087307;28;20203;-78
2023/04/09 03:02:35;;;;;;;38.43;14.77;;;14.40;57.60;;;;;;5086931;28;20588;-77
2023/04/09 03:05:02;;;;;;;45.00;15.30;;;14.30;57.50;;;;;;5087214;28;20206;-77
2023/04/09 03:07:31;;;;;;;45.73;14.93;;;14.30;57.60;;;;;;5086572;28;20983;-78
2023/04/09 03:09:58;;;;;;;43.40;14.80;;;14.30;57.60;;;;;;5088686;28;20195;-78
2023/04/09 03:12:25;;;;;;;39.90;14.70;;;14.30;57.60;;;;;;5096819;28;20202;-77
2023/04/09 03:14:51;;;;;;;43.60;14.50;;;14.30;57.60;;;;;;5105668;28;20202;-78
2023/04/09 03:17:18;;;;;;;42.77;14.23;;;14.30;57.60;;;;;;5094018;28;20198;-77
2023/04/09 03:19:45;;;;;;;45.50;15.07;;;14.20;57.50;;;;;;5102274;28;20218;-77
2023/04/09 03:22:12;;;;;;;48.03;14.43;;;14.20;57.50;;;;;;5091324;28;20206;-81
2023/04/09 03:24:40;;;;;;;45.30;14.50;;;14.20;57.50;;;;;;5103194;28;20204;-79
2023/04/09 03:27:07;;;;;;;45.83;13.73;;;14.20;57.50;;;;;;5103674;28;20218;-77
2023/04/09 03:29:34;;;;;;;61.53;15.97;;;14.20;57.50;;;;;;5100092;28;20689;-78
2023/04/09 03:32:01;;;;;;;52.13;14.87;;;14.20;57.50;;;;;;5104917;28;20210;-78
2023/04/09 03:34:28;;;;;;;36.20;13.30;;;14.20;57.80;;;;;;5092703;28;20207;-77
2023/04/09 03:36:54;;;;;;;44.73;14.20;;;14.20;57.50;;;;;;5093970;28;20206;-78
2023/04/09 03:39:21;;;;;;;58.40;15.47;;;14.10;57.40;;;;;;5099498;28;20519;-81
2023/04/09 03:41:49;;;;;;;40.60;14.17;;;14.10;57.40;;;;;;5091580;28;20202;-77
2023/04/09 03:44:16;;;;;;;54.83;14.50;;;14.10;57.40;;;;;;5109885;28;20202;-79
2023/04/09 03:46:43;;;;;;;50.00;14.87;;;14.10;57.40;;;;;;5111515;28;20208;-81
2023/04/09 03:49:10;;;;;;;45.37;14.20;;;14.10;57.40;;;;;;5111438;28;20291;-80
2023/04/09 03:51:37;;;;;;;54.70;14.60;;;14.00;57.30;;;;;;5109419;28;20195;-83
2023/04/09 03:54:04;;;;;;;41.13;12.83;;;14.10;57.40;;;;;;5107834;28;20190;-83
2023/04/09 03:56:31;;;;;;;59.97;15.03;;;14.10;57.40;;;;;;5110004;28;20201;-79
2023/04/09 03:58:59;;;;;;;38.73;13.43;;;14.00;57.30;;;;;;5112079;28;20228;-83
2023/04/09 04:01:26;;;;;;;49.67;13.67;;;14.00;57.30;;;;;;5110697;28;20212;-80
2023/04/09 04:03:53;;;;;;;46.80;13.13;;;14.00;57.30;;;;;;5111524;28;20198;-83
2023/04/09 04:06:19;;;;;;;46.13;12.93;;;13.90;57.20;;;;;;5111765;28;20189;-78
2023/04/09 04:08:46;;;;;;;44.10;12.90;;;13.90;57.30;;;;;;5096143;28;20195;-81
2023/04/09 04:11:13;;;;;;;41.43;12.07;;;13.90;57.20;;;;;;5100970;28;20194;-81
2023/04/09 04:13:40;;;;;;;49.87;13.13;;;14.00;57.30;;;;;;5093676;28;20195;-78
2023/04/09 04:16:09;;;;;;;40.27;12.20;;;14.00;57.30;;;;;;5099281;28;20555;-78
2023/04/09 04:18:37;;;;;;;42.43;11.93;;;13.90;57.20;;;;;;5110071;28;20230;-78
2023/04/09 04:21:04;;;;;;;35.93;11.53;;;13.90;57.60;;;;;;5111543;28;20208;-78
2023/04/09 04:23:31;;;;;;;41.50;12.53;;;13.80;57.20;;;;;;5099900;28;20191;-77
2023/04/09 04:25:57;;;;;;;67.50;15.33;;;14.00;58.00;;;;;;5093482;28;20218;-77
2023/04/09 04:28:24;;;;;;;62.43;14.03;;;13.80;57.20;;;;;;5099417;28;20206;-78
2023/04/09 04:30:51;;;;;;;44.63;12.80;;;13.80;57.20;;;;;;5089735;28;20202;-77
2023/04/09 04:33:19;;;;;;;50.50;12.37;;;13.80;57.20;;;;;;5102394;28;20200;-77
2023/04/09 04:35:46;;;;;;;40.40;11.77;;;13.80;57.20;;;;;;5101228;28;20204;-78
2023/04/09 04:38:13;;;;;;;36.17;11.27;;;13.80;57.30;;;;;;5092747;28;20199;-77
2023/04/09 04:40:40;;;;;;;54.47;12.97;;;13.80;57.20;;;;;;5097202;28;20200;-78
2023/04/09 04:43:07;;;;;;;44.03;12.30;;;13.70;57.20;;;;;;5108952;28;20201;-77
2023/04/09 04:45:34;;;;;;;53.60;13.07;;;13.70;57.20;;;;;;5098606;28;20558;-79
2023/04/09 04:48:00;;;;;;;39.33;12.00;;;13.70;57.20;;;;;;5108539;28;20248;-78
2023/04/09 04:50:29;;;;;;;46.17;13.20;;;13.70;57.20;;;;;;5107939;28;20198;-80
2023/04/09 04:52:56;;;;;;;46.17;12.37;;;13.70;57.20;;;;;;5104119;28;20213;-77
2023/04/09 04:55:22;;;;;;;113.97;17.40;;;13.70;57.20;;;;;;5097781;28;20205;-77
2023/04/09 04:57:51;;;;;;;43.07;12.07;;;13.70;57.20;;;;;;5100264;28;20213;-77
2023/04/09 05:00:18;;;;;;;52.33;11.93;;;13.60;57.20;;;;;;5108694;28;20231;-77
2023/04/09 05:02:45;;;;;;;40.70;10.90;;;13.70;57.20;;;;;;5099533;28;20198;-78
2023/04/09 05:05:12;;;;;;;68.27;14.07;;;13.60;57.20;;;;;;5089680;28;20677;-77
2023/04/09 05:07:40;;;;;;;45.70;11.13;;;13.60;57.20;;;;;;5107661;28;20204;-78
2023/04/09 05:10:08;;;;;;;55.87;13.47;;;13.60;57.20;;;;;;5093860;28;20672;-78
2023/04/09 05:12:35;;;;;;;46.77;12.90;;;13.60;57.20;;;;;;5093455;28;20211;-78
2023/04/09 05:15:02;;;;;;;62.97;13.03;;;13.60;57.20;;;;;;5089717;28;20199;-77
2023/04/09 05:17:29;;;;;;;43.63;11.83;;;13.50;57.10;;;;;;5099052;28;20529;-78
2023/04/09 05:19:57;;;;;;;43.03;11.83;;;13.50;57.10;;;;;;5089432;28;20234;-78
2023/04/09 05:22:24;;;;;;;67.63;14.13;;;13.50;57.30;;;;;;5088259;28;20195;-78
2023/04/09 05:24:52;;;;;;;39.30;11.97;;;13.50;57.10;;;;;;5101538;28;20206;-78
2023/04/09 05:27:21;;;;;;;47.83;12.13;;;13.50;57.20;;;;;;5091169;28;20693;-77
2023/04/09 05:29:48;;;;;;;43.60;12.33;;;13.50;57.20;;;;;;5100990;28;20201;-78
2023/04/09 05:32:14;;;;;;;43.93;11.77;;;13.50;57.20;;;;;;5110559;28;20187;-78
2023/04/09 05:34:41;;;;;;;44.23;12.20;;;13.40;57.10;;;;;;5109341;28;20242;-78
2023/04/09 05:37:08;;;;;;;42.00;11.80;;;13.50;57.20;;;;;;5110674;28;20195;-77
2023/04/09 05:39:35;;;;;;;50.20;12.30;;;13.40;57.10;;;;;;5092050;28;20592;-80
2023/04/09 05:42:03;;;;;;;45.93;12.30;;;13.40;57.20;;;;;;5101847;28;20195;-78
2023/04/09 05:44:30;;;;;;;51.63;12.40;;;13.50;57.30;;;;;;5109809;28;20201;-77
2023/04/09 05:46:57;;;;;;;49.60;13.00;;;13.40;57.20;;;;;;5094452;28;20216;-78
2023/04/09 05:49:24;;;;;;;41.50;11.50;;;13.40;57.20;;;;;;5089672;28;20194;-77
2023/04/09 05:51:51;;;;;;;52.93;12.87;;;13.40;57.20;;;;;;5095271;28;20565;-78
2023/04/09 05:54:18;;;;;;;39.00;11.73;;;13.40;57.30;;;;;;5091758;28;20220;-78
2023/04/09 05:56:45;;;;;;;50.67;12.47;;;13.40;57.30;;;;;;5089136;28;20200;-79
2023/04/09 05:59:13;;;;;;;42.93;10.80;;;13.40;57.30;;;;;;5089300;28;20234;-78
2023/04/09 06:01:40;;;;;;;55.57;13.23;;;13.40;57.20;;;;;;5089271;28;20195;-78
2023/04/09 06:04:07;;;;;;;64.00;13.70;;;13.40;57.30;;;;;;5102688;28;20240;-79
2023/04/09 06:06:34;;;;;;;42.17;11.67;;;13.30;57.20;;;;;;5108593;28;20204;-78
2023/04/09 06:09:01;;;;;;;39.90;11.60;;;13.40;57.30;;;;;;5108322;28;20662;-78
2023/04/09 06:11:28;;;;;;;38.97;12.80;;;13.30;57.20;;;;;;5109798;28;20206;-79
2023/04/09 06:13:55;;;;;;;51.23;13.27;;;13.30;57.20;;;;;;5109248;28;20588;-79
2023/04/09 06:16:23;;;;;;;49.43;12.97;;;13.40;57.30;;;;;;5101774;28;20588;-80
2023/04/09 06:18:53;;;;;;;43.90;12.83;;;13.30;57.20;;;;;;5109317;28;20700;-79
2023/04/09 06:21:20;;;;;;;68.83;14.97;;;13.30;57.20;;;;;;5108704;28;20551;-79
2023/04/09 06:23:47;;;;;;;52.63;13.60;;;13.30;57.20;;;;;;5108997;28;20198;-79
2023/04/09 06:26:14;;;;;;;32.10;11.33;;;13.30;57.30;;;;;;5108776;28;20225;-79
2023/04/09 06:28:41;;;;;;;37.77;12.00;;;13.30;57.30;;;;;;5109400;28;20203;-77
2023/04/09 06:31:08;;;;;;;32.43;11.07;;;13.30;57.30;;;;;;5103540;28;20680;-79
2023/04/09 06:33:36;;;;;;;43.67;13.03;;;13.30;57.30;;;;;;5099939;28;20191;-78
2023/04/09 06:36:03;;;;;;;44.97;13.30;;;13.30;57.30;;;;;;5103054;28;20721;-78
2023/04/09 06:38:29;;;;;;;53.17;13.37;;;13.30;57.30;;;;;;5108753;28;20559;-77
2023/04/09 06:40:57;;;;;;;66.87;14.03;;;13.30;57.30;;;;;;5105119;28;20229;-81
2023/04/09 06:43:24;;;;;;;47.63;13.90;;;13.20;57.30;;;;;;5108652;28;20201;-80
2023/04/09 06:45:50;;;;;;;74.47;15.73;;;13.30;57.40;;;;;;5104974;28;20283;-79
2023/04/09 06:48:17;;;;;;;44.77;12.70;;;13.30;57.40;;;;;;5088837;28;20292;-78
2023/04/09 06:50:45;;;;;;;53.03;14.10;;;13.30;57.40;;;;;;5087818;28;20655;-81
2023/04/09 06:53:12;;;;;;;40.47;13.00;;;13.20;57.30;;;;;;5090292;28;20208;-83
2023/04/09 06:55:39;;;;;;;54.20;14.53;;;13.30;57.40;;;;;;5088470;28;20240;-80
2023/04/09 06:58:06;;;;;;;58.60;14.50;;;13.30;57.40;;;;;;5088251;28;20205;-78
2023/04/09 07:00:33;;;;;;;46.40;13.90;;;13.30;57.40;;;;;;5088065;28;20230;-78
2023/04/09 07:03:00;;;;;;;47.80;13.77;;;13.30;57.40;;;;;;5087898;28;20198;-78
2023/04/09 07:05:27;;;;;;;39.03;12.80;;;13.30;57.40;;;;;;5088068;28;20213;-78
2023/04/09 07:07:55;;;;;;;61.77;14.83;;;13.30;57.40;;;;;;5089178;28;20346;-78
2023/04/09 07:10:22;;;;;;;54.57;17.17;;;13.30;57.40;;;;;;5090471;28;20210;-81
2023/04/09 07:12:49;;;;;;;45.33;14.30;;;13.30;57.50;;;;;;5098932;28;20201;-85
2023/04/09 07:15:16;;;;;;;44.27;13.93;;;13.30;57.50;;;;;;5087965;28;20205;-79
2023/04/09 07:17:43;;;;;;;46.63;15.80;;;13.30;57.50;;;;;;5087693;28;20203;-80
2023/04/09 07:20:10;;;;;;;54.00;15.77;;;13.20;57.40;;;;;;5088444;28;20756;-84
2023/04/09 07:22:37;;;;;;;48.00;15.50;;;13.30;57.50;;;;;;5095158;28;20214;-80
2023/04/09 07:25:07;;;;;;;41.23;14.50;;;13.30;57.50;;;;;;5090246;28;20548;-83
2023/04/09 07:27:34;;;;;;;57.90;15.90;;;13.30;57.60;;;;;;5094332;28;20591;-86
2023/04/09 07:30:02;;;;;;;47.37;15.63;;;13.30;57.50;;;;;;5107712;28;20198;-82
2023/04/09 07:32:29;;;;;;;43.53;15.03;;;13.30;57.60;;;;;;5106497;28;20335;-79
2023/04/09 07:34:58;;;;;;;46.73;16.07;;;13.30;57.50;;;;;;5094378;28;20225;-81
2023/04/09 07:37:25;;;;;;;49.57;15.20;;;13.30;57.60;;;;;;5093127;28;20197;-78
2023/04/09 07:39:52;;;;;;;63.07;16.53;;;13.30;57.60;;;;;;5104852;28;20287;-79
2023/04/09 07:42:21;;;;;;;43.90;14.27;;;13.30;57.60;;;;;;5104192;28;20193;-79
2023/04/09 07:44:47;;;;;;;41.80;16.20;;;13.30;57.60;;;;;;5097543;28;20673;-77
2023/04/09 07:47:14;;;;;;;57.30;16.77;;;13.30;57.60;;;;;;5092213;28;20205;-78
2023/04/09 07:49:42;;;;;;;57.37;17.30;;;13.30;57.60;;;;;;5091625;28;20627;-82
2023/04/09 07:52:08;;;;;;;45.03;15.93;;;13.40;57.60;;;;;;5090734;28;20193;-79
2023/04/09 07:54:35;;;;;;;45.50;16.10;;;13.40;57.60;;;;;;5107395;28;20198;-78
2023/04/09 07:57:03;;;;;;;61.53;17.60;;;13.30;57.60;;;;;;5104537;28;20203;-79
2023/04/09 07:59:31;;;;;;;57.27;17.77;;;13.40;57.60;;;;;;5090373;28;20231;-81
2023/04/09 08:01:58;;;;;;;66.23;18.17;;;13.40;57.60;;;;;;5086824;28;20242;-80
2023/04/09 08:04:25;;;;;;;51.20;15.83;;;13.40;57.60;;;;;;5086745;28;20195;-78
2023/04/09 08:06:52;;;;;;;57.10;17.87;;;13.40;57.60;;;;;;5089307;28;20218;-78
2023/04/09 08:09:20;;;;;;;49.73;16.13;;;13.40;57.60;;;;;;5091769;28;20258;-77
2023/04/09 08:11:48;;;;;;;47.70;16.27;;;13.40;57.60;;;;;;5090648;28;20202;-78
2023/04/09 08:14:17;;;;;;;53.03;17.13;;;13.50;57.70;;;;;;5091798;28;20813;-78
2023/04/09 08:16:46;;;;;;;78.83;18.43;;;13.40;57.60;;;;;;5095090;28;20187;-78
2023/04/09 08:19:15;;;;;;;48.37;16.43;;;13.50;57.70;;;;;;5098797;28;20209;-80
2023/04/09 08:21:42;;;;;;;50.77;17.00;;;13.50;57.70;;;;;;5108428;27;20208;-80
2023/04/09 08:24:10;;;;;;;49.90;17.40;;;13.50;57.70;;;;;;5113479;28;20210;-85
2023/04/09 08:26:37;;;;;;;56.10;17.63;;;13.50;57.70;;;;;;5114924;28;20236;-83
2023/04/09 08:29:05;;;;;;;44.57;17.10;;;13.40;57.60;;;;;;5112458;28;20208;-79
2023/04/09 08:31:31;;;;;;;56.40;17.20;;;13.50;57.70;;;;;;5107665;28;20283;-86
2023/04/09 08:34:00;;;;;;;55.03;17.77;;;13.60;57.90;;;;;;5089826;28;20560;-90
2023/04/09 08:36:27;;;;;;;50.67;20.70;;;13.60;57.80;;;;;;5097778;28;20559;-81
2023/04/09 08:38:55;;;;;;;54.43;21.20;;;13.60;57.90;;;;;;5101249;28;20213;-84
2023/04/09 08:41:24;;;;;;;66.83;26.10;;;13.70;58.00;;;;;;5112662;28;20265;-88
2023/04/09 08:43:53;;;;;;;70.57;26.00;;;13.60;58.00;;;;;;5110697;28;20205;-83
2023/04/09 08:46:20;;;;;;;70.00;27.33;;;13.70;58.30;;;;;;5106787;28;20210;-79
2023/04/09 08:48:48;;;;;;;63.07;26.20;;;13.70;58.40;;;;;;5090419;28;20206;-83
2023/04/09 08:51:20;;;;;;;61.13;25.37;;;13.70;58.50;;;;;;5090331;28;20197;-80
2023/04/09 08:53:51;;;;;;;62.87;25.03;;;13.80;58.60;;;;;;5106792;28;20198;-87
2023/04/09 08:56:19;;;;;;;63.17;25.33;;;13.90;58.70;;;;;;5111127;28;20293;-86
2023/04/09 08:58:47;;;;;;;69.53;25.40;;;13.90;58.70;;;;;;5098454;28;20552;-84
2023/04/09 09:01:21;;;;;;;57.10;24.47;;;13.90;58.60;;;;;;5111248;28;20229;-88
2023/04/09 09:04:02;;;;;;;89.37;26.37;;;14.00;58.80;;;;;;5097897;28;20964;-81
2023/04/09 09:06:32;;;;;;;63.83;24.73;;;14.10;58.80;;;;;;5088409;28;20694;-85
2023/04/09 09:09:03;;;;;;;70.13;25.03;;;14.20;58.80;;;;;;5088246;28;20971;-85
2023/04/09 09:11:30;;;;;;;70.60;25.23;;;14.20;58.80;;;;;;5088765;28;20204;-83
2023/04/09 09:13:58;;;;;;;71.03;25.77;;;14.30;58.80;;;;;;5088272;28;20665;-88
2023/04/09 09:16:26;;;;;;;80.03;26.40;;;14.30;58.70;;;;;;5088211;28;20536;-84
2023/04/09 09:18:54;;;;;;;74.67;26.20;;;14.40;58.80;;;;;;5088873;28;20195;-82
2023/04/09 09:21:22;;;;;;;78.43;25.17;;;14.40;58.70;;;;;;5089438;28;20708;-81
2023/04/09 09:23:50;;;;;;;61.23;22.93;;;14.50;58.80;;;;;;5090230;28;20671;-81
2023/04/09 09:26:20;;;;;;;63.03;23.07;;;14.50;58.70;;;;;;5089959;28;20221;-82
2023/04/09 09:28:48;;;;;;;59.73;23.23;;;14.60;58.80;;;;;;5098543;28;20597;-80
2023/04/09 09:31:16;;;;;;;63.13;22.33;;;14.60;58.70;;;;;;5095712;28;20285;-81
2023/04/09 09:33:44;;;;;;;80.23;24.93;;;14.60;58.70;;;;;;5092849;28;20602;-87
2023/04/09 09:36:10;;;;;;;85.87;28.80;;;14.70;58.80;;;;;;5092621;28;20205;-82
2023/04/09 09:38:55;;;;;;;86.07;29.33;;;14.70;58.80;;;;;;5107207;28;20677;-88
2023/04/09 09:41:24;;;;;;;72.47;30.37;;;14.80;59.20;;;;;;5103446;28;20206;-83
2023/04/09 09:43:52;;;;;;;61.57;27.53;;;14.90;59.20;;;;;;5089174;28;20203;-81
2023/04/09 09:46:20;;;;;;;82.00;28.63;;;14.90;59.30;;;;;;5088428;28;20322;-81
2023/04/09 09:48:48;;;;;;;71.03;27.90;;;14.90;59.30;;;;;;5092343;28;20642;-78
2023/04/09 09:51:16;;;;;;;66.17;29.17;;;15.00;59.40;;;;;;5095558;28;20278;-77
2023/04/09 09:53:44;;;;;;;69.60;26.77;;;15.10;59.50;;;;;;5094029;28;20557;-78
2023/04/09 09:56:16;;;;;;;60.57;25.23;;;15.10;59.50;;;;;;5108050;28;20256;-80
2023/04/09 09:58:49;;;;;;;56.67;22.40;;;15.20;59.60;;;;;;5108403;28;20202;-78
2023/04/09 10:01:19;;;;;;;77.60;23.03;;;15.30;59.60;;;;;;5095376;28;20225;-80
2023/04/09 10:03:47;;;;;;;43.40;23.80;;;15.40;59.70;;;;;;5088988;28;20207;-87
2023/04/09 10:06:14;;;;;;;48.30;24.27;;;15.50;59.80;;;;;;5093876;28;20211;-82
2023/04/09 10:08:42;;;;;;;58.53;25.23;;;15.50;59.90;;;;;;5088664;28;20219;-79
2023/04/09 10:11:11;;;;;;;61.63;26.23;;;15.60;60.10;;;;;;5105689;28;20217;-77
2023/04/09 10:13:45;;;;;;;54.63;23.83;;;15.70;60.30;;;;;;5106628;28;20289;-78
2023/04/09 10:16:13;;;;;;;50.13;23.20;;;15.80;60.40;;;;;;5109142;28;20198;-77
2023/04/09 10:18:41;;;;;;;58.47;23.97;;;15.90;60.40;;;;;;5103374;28;20288;-76
2023/04/09 10:21:14;;;;;;;57.70;24.20;;;16.00;60.50;;;;;;5092981;28;20705;-81
2023/04/09 10:23:43;;;;;;;58.43;22.83;;;16.00;60.50;;;;;;5088333;28;20203;-76
2023/04/09 10:26:11;;;;;;;55.87;22.57;;;16.10;60.40;;;;;;5088798;28;20221;-76
2023/04/09 10:28:39;;;;;;;46.87;21.37;;;16.20;60.40;;;;;;5088459;28;20199;-77
2023/04/09 10:31:07;;;;;;;54.03;23.37;;;16.30;60.40;;;;;;5088552;28;20202;-77
2023/04/09 10:33:37;;;;;;;50.47;21.70;;;16.40;60.40;;;;;;5087623;28;20616;-77
2023/04/09 10:36:05;;;;;;;57.73;22.03;;;16.40;60.30;;;;;;5099428;28;20193;-77
2023/04/09 10:38:37;;;;;;;63.27;23.37;;;16.50;60.30;;;;;;5095363;28;20616;-77
2023/04/09 10:41:14;;;;;;;50.80;21.70;;;16.60;60.30;;;;;;5088111;28;20217;-77
2023/04/09 10:43:43;;;;;;;51.80;20.87;;;16.60;60.20;;;;;;5095476;28;20207;-78
2023/04/09 10:46:25;;;;;;;49.97;21.00;;;16.70;60.20;;;;;;5106096;28;20217;-79
2023/04/09 10:49:08;;;;;;;50.70;20.47;;;16.80;60.30;;;;;;5103646;28;21076;-78
2023/04/09 10:51:37;;;;;;;48.80;21.07;;;16.80;60.20;;;;;;5087776;28;20288;-78
2023/04/09 10:54:05;;;;;;;70.53;22.87;;;16.90;60.10;;;;;;5087856;28;20201;-82
2023/04/09 10:56:32;;;;;;;50.17;19.10;;;16.90;60.10;;;;;;5105158;28;20638;-78
2023/04/09 10:59:01;;;;;;;46.63;19.67;;;17.00;60.10;;;;;;5106893;28;20200;-82
2023/04/09 11:01:27;;;;;;;42.67;20.87;;;17.00;60.10;;;;;;5108274;28;20231;-82
2023/04/09 11:04:18;;;;;;;61.63;21.63;;;17.00;60.00;;;;;;5106928;28;20198;-81
2023/04/09 11:06:46;;;;;;;45.17;20.07;;;17.10;60.20;;;;;;5087573;28;20233;-81
2023/04/09 11:09:13;;;;;;;49.97;19.53;;;17.20;60.10;;;;;;5087457;28;20218;-81
2023/04/09 11:11:40;;;;;;;44.37;18.90;;;17.20;60.00;;;;;;5103015;28;20210;-86
2023/04/09 11:14:09;;;;;;;61.97;18.63;;;17.30;60.10;;;;;;5106264;28;20202;-84
2023/04/09 11:16:36;;;;;;;48.27;18.67;;;17.30;60.00;;;;;;5091483;28;20202;-80
2023/04/09 11:19:04;;;;;;;45.00;17.83;;;17.30;60.00;;;;;;5106150;28;20200;-81
2023/04/09 11:21:31;;;;;;;52.37;18.93;;;17.40;60.10;;;;;;5107939;28;20229;-80
2023/04/09 11:23:58;;;;;;;48.03;18.13;;;17.40;60.10;;;;;;5108460;28;20534;-82
2023/04/09 11:26:34;;;;;;;50.27;18.10;;;17.40;60.10;;;;;;5108192;28;20233;-79
2023/04/09 11:29:06;;;;;;;49.77;18.20;;;17.40;60.10;;;;;;5108815;28;20208;-83
2023/04/09 11:31:34;;;;;;;48.07;17.80;;;17.50;60.20;;;;;;5106461;28;20230;-81
2023/04/09 11:34:01;;;;;;;37.50;17.47;;;17.50;60.20;;;;;;5094679;28;20230;-85
2023/04/09 11:36:28;;;;;;;44.53;17.03;;;17.60;60.20;;;;;;5094630;28;20687;-81
2023/04/09 11:38:55;;;;;;;39.20;16.97;;;17.60;60.20;;;;;;5108371;28;20215;-86
2023/04/09 11:41:35;;;;;;;48.33;17.10;;;17.60;60.20;;;;;;5100565;28;20752;-85
2023/04/09 11:44:03;;;;;;;43.13;16.03;;;17.60;60.30;;;;;;5091520;28;20211;-88
2023/04/09 11:46:31;;;;;;;60.53;18.37;;;17.70;60.20;;;;;;5091424;28;20285;-84
2023/04/09 11:49:00;;;;;;;51.83;17.60;;;17.80;60.20;;;;;;5108008;28;20202;-80
2023/04/09 11:51:29;;;;;;;39.97;15.93;;;17.70;60.20;;;;;;5112390;28;20202;-85
2023/04/09 11:53:56;;;;;;;37.07;15.67;;;17.90;60.30;;;;;;5098407;28;20201;-84
2023/04/09 11:56:24;;;;;;;41.80;15.57;;;17.80;60.20;;;;;;5097171;28;20673;-80
2023/04/09 11:58:51;;;;;;;39.60;16.67;;;17.80;60.20;;;;;;5097282;28;20209;-82
2023/04/09 12:01:17;;;;;;;41.13;16.17;;;17.90;60.20;;;;;;5092036;28;20216;-83
2023/04/09 12:03:44;;;;;;;34.43;15.17;;;17.90;60.20;;;;;;5091621;28;20194;-83
2023/04/09 12:06:12;;;;;;;39.00;15.27;;;17.90;60.20;;;;;;5100154;28;20216;-89
2023/04/09 12:08:39;;;;;;;42.33;15.13;;;17.90;60.20;;;;;;5108305;28;20205;-86
2023/04/09 12:11:10;;;;;;;35.93;14.93;;;18.00;60.40;;;;;;5092933;28;20320;-90
2023/04/09 12:13:41;;;;;;;38.93;15.80;;;18.00;60.40;;;;;;5091108;28;20203;-87
2023/04/09 12:16:08;;;;;;;58.83;16.47;;;18.00;60.30;;;;;;5090371;28;20655;-86
2023/04/09 12:18:36;;;;;;;56.83;16.00;;;18.00;60.30;;;;;;5094046;28;20258;-85
2023/04/09 12:21:04;;;;;;;47.90;15.80;;;18.10;60.30;;;;;;5090743;28;20236;-81
2023/04/09 12:23:32;;;;;;;43.03;15.97;;;18.10;60.30;;;;;;5091164;28;20202;-87
2023/04/09 12:26:00;;;;;;;41.37;15.00;;;18.10;60.30;;;;;;5091167;28;20220;-80
2023/04/09 12:28:27;;;;;;;43.37;16.13;;;18.20;60.40;;;;;;5090156;28;20333;-82
2023/04/09 12:30:54;;;;;;;30.80;13.30;;;18.20;60.40;;;;;;5108141;28;20657;-80